createdAt,value
2022-10-09T00:01:12.445Z,4.50
2022-10-09T00:03:40.985Z,5.93
2022-10-09T00:06:09.951Z,4.50
2022-10-09T00:08:39.510Z,4.43
2022-10-09T00:11:07.748Z,3.93
2022-10-09T00:13:34.762Z,4.30
2022-10-09T00:16:06.452Z,4.43
2022-10-09T00:18:33.181Z,4.20
2022-10-09T00:20:59.793Z,4.30
2022-10-09T00:23:26.564Z,4.27
2022-10-09T00:25:58.954Z,4.37
2022-10-09T00:28:27.367Z,4.10
2022-10-09T00:30:54.005Z,4.20
2022-10-09T00:33:20.974Z,4.13
2022-10-09T00:35:47.562Z,4.20
2022-10-09T00:38:14.611Z,3.93
2022-10-09T00:40:42.098Z,4.33
2022-10-09T00:43:19.436Z,4.17
2022-10-09T00:45:53.582Z,4.10
2022-10-09T00:48:21.496Z,4.37
2022-10-09T00:50:57.553Z,3.97
2022-10-09T00:53:27.793Z,3.73
2022-10-09T00:55:55.582Z,4.10
2022-10-09T00:58:23.893Z,3.90
2022-10-09T01:00:50.591Z,3.93
2022-10-09T01:03:17.220Z,4.00
2022-10-09T01:05:56.295Z,3.80
2022-10-09T01:08:31.157Z,3.70
2022-10-09T01:11:19.472Z,3.77
2022-10-09T01:13:50.410Z,3.80
2022-10-09T01:16:24.212Z,3.70
2022-10-09T01:18:53.722Z,3.80
2022-10-09T01:21:25.253Z,3.93
2022-10-09T01:23:51.866Z,3.73
2022-10-09T01:26:26.507Z,3.47
2022-10-09T01:28:57.441Z,4.20
2022-10-09T01:31:27.842Z,4.50
2022-10-09T01:33:54.612Z,3.70
2022-10-09T01:36:22.913Z,3.97
2022-10-09T01:38:50.365Z,3.43
2022-10-09T01:41:17.722Z,4.20
2022-10-09T01:43:44.246Z,3.43
2022-10-09T01:46:22.868Z,3.77
2022-10-09T01:49:17.508Z,3.70
2022-10-09T01:51:58.243Z,3.70
2022-10-09T01:54:36.740Z,3.60
2022-10-09T01:57:07.165Z,3.80
2022-10-09T01:59:38.098Z,3.63
2022-10-09T02:02:06.401Z,3.60
2022-10-09T02:04:34.039Z,3.53
2022-10-09T02:07:00.625Z,4.57
2022-10-09T02:09:28.704Z,3.43
2022-10-09T02:12:00.361Z,3.40
2022-10-09T02:14:26.889Z,3.27
2022-10-09T02:17:05.868Z,3.63
2022-10-09T02:19:39.655Z,3.80
2022-10-09T02:22:13.511Z,3.70
2022-10-09T02:24:41.029Z,3.20
2022-10-09T02:27:08.725Z,3.60
2022-10-09T02:29:36.288Z,4.00
2022-10-09T02:32:03.457Z,3.43
2022-10-09T02:34:30.370Z,3.50
2022-10-09T02:36:57.006Z,3.67
2022-10-09T02:39:23.584Z,3.10
2022-10-09T02:41:50.160Z,3.30
2022-10-09T02:44:16.752Z,3.50
2022-10-09T02:46:43.275Z,3.30
2022-10-09T02:49:09.960Z,3.23
2022-10-09T02:51:36.527Z,2.90
2022-10-09T02:54:03.240Z,3.37
2022-10-09T02:56:30.569Z,3.30
2022-10-09T02:58:57.226Z,3.37
2022-10-09T03:01:24.580Z,3.87
2022-10-09T03:03:51.270Z,3.47
2022-10-09T03:06:23.405Z,3.17
2022-10-09T03:08:50.864Z,4.93
2022-10-09T03:11:18.768Z,2.80
2022-10-09T03:13:45.734Z,3.13
2022-10-09T03:16:14.963Z,3.70
2022-10-09T03:18:42.473Z,3.50
2022-10-09T03:21:12.516Z,2.90
2022-10-09T03:23:39.366Z,3.03
2022-10-09T03:26:08.525Z,3.47
2022-10-09T03:28:37.581Z,3.07
2022-10-09T03:31:05.120Z,3.30
2022-10-09T03:33:32.110Z,3.37
2022-10-09T03:35:58.820Z,2.87
2022-10-09T03:38:25.548Z,2.90
2022-10-09T03:40:52.430Z,2.97
2022-10-09T03:43:19.164Z,2.80
2022-10-09T03:45:45.762Z,3.00
2022-10-09T03:48:13.405Z,2.70
2022-10-09T03:50:41.122Z,3.50
2022-10-09T03:53:09.133Z,3.10
2022-10-09T03:55:36.067Z,2.50
2022-10-09T03:58:02.763Z,2.97
2022-10-09T04:00:29.777Z,3.10
2022-10-09T04:02:56.362Z,2.87
2022-10-09T04:05:23.303Z,2.90
2022-10-09T04:07:50.177Z,3.43
2022-10-09T04:10:16.879Z,2.70
2022-10-09T04:12:43.511Z,4.60
2022-10-09T04:15:10.800Z,3.37
2022-10-09T04:17:37.457Z,2.90
2022-10-09T04:20:04.486Z,3.67
2022-10-09T04:22:31.326Z,3.00
2022-10-09T04:24:58.097Z,2.60
2022-10-09T04:27:24.776Z,3.47
2022-10-09T04:29:51.313Z,2.73
2022-10-09T04:32:20.977Z,2.77
2022-10-09T04:34:47.477Z,2.70
2022-10-09T04:37:14.215Z,2.53
2022-10-09T04:39:40.778Z,2.40
2022-10-09T04:42:07.805Z,2.70
2022-10-09T04:44:34.506Z,2.70
2022-10-09T04:47:01.051Z,3.00
2022-10-09T04:49:27.575Z,3.00
2022-10-09T04:51:54.320Z,2.90
2022-10-09T04:54:20.817Z,3.20
2022-10-09T04:56:47.589Z,2.87
2022-10-09T04:59:14.082Z,2.90
2022-10-09T05:01:40.714Z,3.73
2022-10-09T05:04:07.315Z,2.70
2022-10-09T05:06:34.007Z,3.00
2022-10-09T05:09:00.619Z,2.97
2022-10-09T05:11:27.357Z,3.37
2022-10-09T05:13:55.546Z,3.70
2022-10-09T05:16:24.840Z,2.97
2022-10-09T05:18:53.760Z,2.93
2022-10-09T05:21:20.669Z,3.20
2022-10-09T05:23:48.073Z,4.13
2022-10-09T05:26:19.830Z,3.73
2022-10-09T05:28:46.992Z,3.00
2022-10-09T05:31:20.555Z,2.47
2022-10-09T05:33:47.797Z,2.60
2022-10-09T05:36:14.525Z,3.57
2022-10-09T05:38:41.366Z,2.50
2022-10-09T05:41:11.350Z,2.80
2022-10-09T05:43:40.229Z,5.00
2022-10-09T05:46:12.601Z,2.93
2022-10-09T05:48:41.710Z,3.37
2022-10-09T05:51:16.717Z,3.67
2022-10-09T05:53:44.753Z,2.80
2022-10-09T05:56:19.927Z,4.60
2022-10-09T05:59:01.570Z,3.20
2022-10-09T06:01:32.192Z,3.33
2022-10-09T06:04:00.467Z,2.57
2022-10-09T06:06:30.502Z,3.00
2022-10-09T06:08:58.025Z,3.60
2022-10-09T06:11:32.012Z,4.07
2022-10-09T06:14:02.668Z,3.03
2022-10-09T06:16:31.927Z,3.50
2022-10-09T06:19:01.026Z,2.63
2022-10-09T06:21:28.205Z,6.37
2022-10-09T06:23:57.141Z,3.37
2022-10-09T06:26:25.362Z,2.70
2022-10-09T06:28:53.075Z,3.10
2022-10-09T06:31:22.444Z,3.00
2022-10-09T06:33:50.767Z,2.40
2022-10-09T06:36:19.214Z,3.37
2022-10-09T06:38:46.291Z,3.03
2022-10-09T06:41:25.958Z,3.27
2022-10-09T06:44:01.248Z,6.67
2022-10-09T06:46:36.659Z,4.07
2022-10-09T06:49:04.770Z,3.00
2022-10-09T06:51:32.103Z,7.13
2022-10-09T06:54:03.566Z,3.80
2022-10-09T06:56:33.091Z,3.73
2022-10-09T06:59:00.802Z,4.63
2022-10-09T07:01:32.368Z,5.90
2022-10-09T07:04:07.255Z,8.00
2022-10-09T07:06:38.453Z,11.30
2022-10-09T07:09:08.090Z,7.90
2022-10-09T07:11:42.971Z,6.87
2022-10-09T07:14:11.382Z,11.37
2022-10-09T07:16:40.330Z,12.57
2022-10-09T07:19:08.517Z,7.33
2022-10-09T07:21:35.879Z,4.13
2022-10-09T07:24:04.149Z,8.50
2022-10-09T07:26:32.967Z,4.80
2022-10-09T07:28:59.639Z,10.00
2022-10-09T07:31:26.522Z,6.93
2022-10-09T07:33:55.379Z,10.30
2022-10-09T07:36:22.079Z,11.43
2022-10-09T07:38:53.481Z,12.63
2022-10-09T07:41:21.812Z,10.80
2022-10-09T07:43:48.871Z,11.30
2022-10-09T07:46:18.522Z,7.90
2022-10-09T07:48:48.832Z,11.67
2022-10-09T07:51:18.997Z,10.87
2022-10-09T07:53:46.443Z,10.10
2022-10-09T07:56:18.007Z,11.07
2022-10-09T07:58:55.409Z,8.13
2022-10-09T08:01:23.273Z,7.40
2022-10-09T08:03:50.715Z,10.77
2022-10-09T08:06:18.806Z,11.67
2022-10-09T08:08:49.336Z,7.60
2022-10-09T08:11:17.144Z,10.33
2022-10-09T08:13:44.639Z,10.50
2022-10-09T08:16:11.586Z,7.43
2022-10-09T08:18:38.474Z,7.20
2022-10-09T08:21:08.270Z,7.97
2022-10-09T08:23:35.273Z,8.40
2022-10-09T08:26:02.085Z,7.83
2022-10-09T08:28:29.016Z,9.57
2022-10-09T08:30:55.803Z,10.00
2022-10-09T08:33:23.549Z,12.00
2022-10-09T08:35:50.290Z,13.70
2022-10-09T08:38:37.578Z,13.30
2022-10-09T08:41:12.368Z,8.20
2022-10-09T08:43:47.100Z,7.77
2022-10-09T08:46:29.344Z,9.13
2022-10-09T08:48:58.832Z,7.33
2022-10-09T08:51:32.361Z,8.67
2022-10-09T08:54:04.512Z,9.13
2022-10-09T08:56:33.560Z,3.63
2022-10-09T08:59:21.994Z,6.97
2022-10-09T09:01:56.465Z,9.07
2022-10-09T09:04:38.702Z,8.03
2022-10-09T09:07:30.745Z,7.60
2022-10-09T09:10:03.071Z,6.97
2022-10-09T09:12:34.291Z,6.47
2022-10-09T09:15:36.347Z,6.00
2022-10-09T09:18:22.360Z,5.97
2022-10-09T09:20:49.016Z,5.57
2022-10-09T09:23:16.664Z,6.00
2022-10-09T09:25:46.325Z,6.30
2022-10-09T09:28:35.060Z,6.60
2022-10-09T09:31:27.987Z,5.80
2022-10-09T09:34:25.136Z,4.73
2022-10-09T09:36:58.044Z,5.90
2022-10-09T09:42:18.282Z,6.22
2022-10-09T09:44:56.342Z,5.85
2022-10-09T09:47:34.713Z,4.70
2022-10-09T09:50:03.331Z,3.80
2022-10-09T09:52:36.549Z,4.82
2022-10-09T09:55:03.679Z,4.07
2022-10-09T09:57:40.720Z,5.40
2022-10-09T10:00:16.370Z,3.92
2022-10-09T10:02:43.052Z,5.00
2022-10-09T10:05:22.191Z,4.40
2022-10-09T10:07:51.551Z,4.25
2022-10-09T10:10:29.084Z,4.15
2022-10-09T10:13:00.284Z,4.10
2022-10-09T10:15:29.274Z,4.60
2022-10-09T10:18:08.346Z,4.13
2022-10-09T10:20:47.746Z,4.43
2022-10-09T10:23:59.249Z,4.13
2022-10-09T10:26:45.773Z,4.72
2022-10-09T10:29:27.996Z,4.88
2022-10-09T10:32:04.428Z,6.20
2022-10-09T10:34:38.049Z,5.20
2022-10-09T10:37:14.084Z,4.40
2022-10-09T10:39:52.694Z,5.82
2022-10-09T10:42:24.640Z,6.50
2022-10-09T10:45:04.260Z,4.85
2022-10-09T10:47:37.183Z,5.35
2022-10-09T10:50:03.977Z,5.28
2022-10-09T10:52:56.517Z,4.68
2022-10-09T10:56:02.640Z,4.80
2022-10-09T10:58:43.886Z,4.80
2022-10-09T11:01:37.683Z,5.85
2022-10-09T11:04:33.526Z,6.30
2022-10-09T11:07:16.219Z,6.68
2022-10-09T11:09:48.918Z,5.60
2022-10-09T11:12:48.994Z,4.57
2022-10-09T11:15:28.054Z,4.65
2022-10-09T11:18:15.704Z,5.00
2022-10-09T11:20:54.037Z,5.57
2022-10-09T11:23:20.559Z,4.88
2022-10-09T11:26:16.566Z,5.00
2022-10-09T11:29:02.652Z,3.90
2022-10-09T11:31:48.472Z,3.80
2022-10-09T11:34:22.665Z,3.40
2022-10-09T11:36:49.227Z,3.75
2022-10-09T11:39:20.172Z,4.35
2022-10-09T11:41:49.087Z,3.92
2022-10-09T11:44:40.523Z,4.20
2022-10-09T11:47:18.849Z,3.65
2022-10-09T11:50:08.691Z,3.83
2022-10-09T11:53:13.165Z,3.97
2022-10-09T11:55:40.443Z,3.72
2022-10-09T11:58:15.198Z,3.92
2022-10-09T12:00:43.035Z,3.15
2022-10-09T12:03:25.463Z,3.95
2022-10-09T12:05:52.284Z,4.03
2022-10-09T12:08:26.885Z,3.83
2022-10-09T12:10:57.440Z,3.80
2022-10-09T12:13:30.460Z,3.80
2022-10-09T12:15:59.087Z,3.35
2022-10-09T12:18:35.758Z,3.58
2022-10-09T12:21:08.658Z,2.92
2022-10-09T12:23:39.667Z,3.70
2022-10-09T12:26:11.050Z,3.95
2022-10-09T12:28:49.003Z,3.58
2022-10-09T12:31:29.940Z,3.28
2022-10-09T12:34:02.297Z,3.40
2022-10-09T12:36:31.476Z,4.20
2022-10-09T12:38:58.358Z,4.28
2022-10-09T12:41:30.022Z,2.85
2022-10-09T12:43:57.844Z,2.60
2022-10-09T12:46:39.308Z,3.47
2022-10-09T12:49:16.900Z,4.05
2022-10-09T12:51:53.757Z,3.83
2022-10-09T12:54:25.350Z,3.15
2022-10-09T12:56:53.872Z,2.60
2022-10-09T12:59:21.293Z,3.35
2022-10-09T13:01:50.082Z,3.03
2022-10-09T13:04:32.679Z,3.85
2022-10-09T13:07:02.400Z,3.42
2022-10-09T13:09:38.097Z,3.20
2022-10-09T13:12:23.253Z,2.92
2022-10-09T13:15:00.551Z,3.60
2022-10-09T13:17:40.433Z,2.78
2022-10-09T13:20:13.047Z,2.58
2022-10-09T13:22:40.172Z,2.47
2022-10-09T13:25:07.254Z,3.20
2022-10-09T13:27:39.364Z,2.78
2022-10-09T13:30:07.045Z,2.00
2022-10-09T13:32:33.701Z,2.65
2022-10-09T13:35:00.298Z,2.20
2022-10-09T13:37:27.593Z,1.70
2022-10-09T13:39:55.843Z,2.58
2022-10-09T13:42:25.581Z,2.28
2022-10-09T13:44:52.267Z,1.98
2022-10-09T13:47:24.197Z,2.10
2022-10-09T13:49:51.435Z,1.73
2022-10-09T13:52:18.060Z,1.80
2022-10-09T13:54:45.063Z,1.52
2022-10-09T13:57:11.842Z,2.03
2022-10-09T13:59:38.538Z,1.70
2022-10-09T14:02:05.230Z,1.85
2022-10-09T14:04:31.795Z,1.80
2022-10-09T14:06:58.403Z,1.50
2022-10-09T14:09:25.122Z,1.55
2022-10-09T14:11:51.679Z,1.70
2022-10-09T14:14:18.230Z,1.75
2022-10-09T14:16:45.009Z,2.00
2022-10-09T14:19:12.015Z,1.80
2022-10-09T14:21:38.637Z,1.80
2022-10-09T14:24:05.768Z,1.88
2022-10-09T14:26:34.109Z,1.60
2022-10-09T14:29:12.104Z,1.60
2022-10-09T14:31:38.792Z,1.90
2022-10-09T14:34:05.459Z,1.90
2022-10-09T14:36:32.096Z,1.80
2022-10-09T14:39:01.797Z,1.98
2022-10-09T14:41:32.153Z,1.58
2022-10-09T14:44:01.085Z,1.50
2022-10-09T14:46:28.926Z,1.75
2022-10-09T14:48:56.782Z,1.80
2022-10-09T14:51:25.979Z,1.90
2022-10-09T14:53:57.273Z,1.48
2022-10-09T14:56:24.473Z,1.67
2022-10-09T14:58:51.091Z,1.58
2022-10-09T15:01:21.559Z,1.60
2022-10-09T15:03:48.618Z,1.75
2022-10-09T15:06:24.175Z,1.63
2022-10-09T15:08:54.352Z,2.03
2022-10-09T15:11:20.907Z,1.48
2022-10-09T15:13:47.496Z,1.55
2022-10-09T15:16:16.150Z,1.45
2022-10-09T15:18:43.887Z,1.60
2022-10-09T15:21:16.546Z,1.40
2022-10-09T15:23:43.509Z,1.50
2022-10-09T15:26:10.990Z,1.70
2022-10-09T15:28:39.150Z,1.90
2022-10-09T15:31:07.202Z,1.80
2022-10-09T15:33:34.102Z,1.67
2022-10-09T15:36:01.079Z,1.70
2022-10-09T15:38:27.827Z,1.45
2022-10-09T15:40:55.876Z,1.67
2022-10-09T15:43:25.104Z,1.58
2022-10-09T15:45:54.288Z,1.50
2022-10-09T15:48:23.081Z,1.48
2022-10-09T15:50:52.208Z,1.35
2022-10-09T15:53:20.129Z,1.40
2022-10-09T15:55:49.055Z,1.67
2022-10-09T15:58:16.831Z,1.70
2022-10-09T16:00:47.495Z,1.50
2022-10-09T16:03:15.228Z,1.90
2022-10-09T16:05:51.178Z,1.38
2022-10-09T16:08:19.017Z,1.40
2022-10-09T16:10:49.189Z,1.85
2022-10-09T16:13:16.971Z,1.80
2022-10-09T16:15:47.569Z,1.88
2022-10-09T16:18:16.378Z,1.70
2022-10-09T16:20:43.562Z,1.83
2022-10-09T16:23:11.269Z,1.95
2022-10-09T16:25:39.558Z,1.83
2022-10-09T16:28:08.474Z,1.80
2022-10-09T16:30:43.906Z,1.63
2022-10-09T16:33:12.892Z,1.60
2022-10-09T16:35:39.794Z,2.05
2022-10-09T16:38:06.814Z,2.00
2022-10-09T16:40:57.286Z,2.20
2022-10-09T16:43:20.421Z,1.58
2022-10-09T16:45:49.237Z,1.65
2022-10-09T16:48:15.835Z,1.65
2022-10-09T16:50:42.682Z,1.80
2022-10-09T16:53:09.873Z,1.60
2022-10-09T16:55:36.646Z,2.30
2022-10-09T16:58:05.749Z,1.50
2022-10-09T17:00:33.580Z,2.10
2022-10-09T17:03:00.127Z,1.95
2022-10-09T17:05:29.146Z,2.17
2022-10-09T17:07:55.726Z,1.88
2022-10-09T17:10:22.316Z,2.10
2022-10-09T17:12:48.935Z,1.80
2022-10-09T17:15:15.941Z,2.38
2022-10-09T17:17:43.691Z,2.58
2022-10-09T17:20:10.485Z,2.00
2022-10-09T17:22:37.119Z,1.90
2022-10-09T17:25:04.631Z,1.88
2022-10-09T17:27:31.321Z,2.00
2022-10-09T17:29:57.943Z,1.70
2022-10-09T17:32:25.282Z,1.90
2022-10-09T17:34:51.963Z,1.88
2022-10-09T17:37:18.737Z,2.00
2022-10-09T17:39:49.709Z,2.17
2022-10-09T17:42:18.588Z,2.20
2022-10-09T17:44:45.214Z,1.90
2022-10-09T17:47:11.835Z,2.20
2022-10-09T17:49:39.505Z,2.10
2022-10-09T17:52:08.411Z,1.95
2022-10-09T17:54:34.921Z,2.33
2022-10-09T17:57:01.650Z,1.90
2022-10-09T17:59:31.337Z,2.10
2022-10-09T18:01:57.924Z,2.58
2022-10-09T18:04:24.407Z,2.40
2022-10-09T18:06:51.985Z,2.15
2022-10-09T18:09:18.514Z,2.10
2022-10-09T18:11:45.072Z,2.03
2022-10-09T18:14:12.323Z,2.03
2022-10-09T18:16:40.112Z,2.15
2022-10-09T18:19:15.577Z,2.00
2022-10-09T18:21:47.415Z,1.98
2022-10-09T18:24:17.111Z,2.15
2022-10-09T18:26:44.564Z,1.90
2022-10-09T18:29:11.119Z,2.10
2022-10-09T18:31:38.805Z,2.10
2022-10-09T18:34:05.940Z,2.40
2022-10-09T18:36:34.653Z,2.50
2022-10-09T18:39:07.348Z,1.77
2022-10-09T18:41:35.456Z,2.22
2022-10-09T18:44:02.846Z,2.20
2022-10-09T18:46:35.889Z,2.25
2022-10-09T18:49:03.111Z,3.25
2022-10-09T18:51:31.273Z,2.30
2022-10-09T18:54:02.843Z,2.30
2022-10-09T18:56:31.895Z,3.25
2022-10-09T18:58:59.532Z,3.45
2022-10-09T19:01:26.309Z,2.55
2022-10-09T19:03:55.488Z,3.65
2022-10-09T19:06:23.175Z,3.40
2022-10-09T19:08:49.954Z,5.43
2022-10-09T19:11:16.670Z,3.63
2022-10-09T19:13:44.532Z,7.90
2022-10-09T19:16:11.195Z,5.50
2022-10-09T19:18:39.248Z,4.78
2022-10-09T19:21:07.547Z,4.45
2022-10-09T19:23:34.188Z,9.45
2022-10-09T19:26:01.017Z,8.43
2022-10-09T19:28:33.253Z,6.20
2022-10-09T19:31:05.436Z,5.75
2022-10-09T19:33:32.078Z,5.00
2022-10-09T19:36:00.993Z,7.20
2022-10-09T19:38:27.990Z,5.43
2022-10-09T19:40:54.728Z,7.43
2022-10-09T19:43:24.350Z,5.60
2022-10-09T19:46:01.256Z,6.45
2022-10-09T19:48:27.857Z,8.27
2022-10-09T19:50:54.433Z,9.90
2022-10-09T19:53:21.135Z,7.97
2022-10-09T19:55:47.745Z,7.20
2022-10-09T19:58:16.590Z,6.40
2022-10-09T20:00:45.513Z,6.80
2022-10-09T20:03:12.330Z,6.33
2022-10-09T20:05:39.069Z,6.93
2022-10-09T20:08:05.940Z,7.90
2022-10-09T20:10:35.931Z,7.17
2022-10-09T20:13:02.511Z,5.03
2022-10-09T20:15:29.137Z,5.30
2022-10-09T20:17:55.700Z,4.97
2022-10-09T20:20:22.308Z,5.17
2022-10-09T20:22:49.069Z,5.50
2022-10-09T20:25:17.007Z,4.93
2022-10-09T20:27:43.612Z,5.20
2022-10-09T20:30:10.696Z,4.73
2022-10-09T20:32:37.516Z,4.43
2022-10-09T20:35:05.369Z,4.27
2022-10-09T20:37:32.041Z,4.60
2022-10-09T20:39:58.499Z,5.07
2022-10-09T20:42:25.215Z,3.50
2022-10-09T20:44:51.713Z,4.00
2022-10-09T20:47:18.223Z,4.37
2022-10-09T20:49:44.739Z,3.90
2022-10-09T20:52:11.257Z,4.10
2022-10-09T20:54:37.740Z,4.40
2022-10-09T20:57:04.326Z,4.20
2022-10-09T20:59:31.267Z,4.00
2022-10-09T21:01:57.754Z,4.07
2022-10-09T21:04:24.264Z,3.70
2022-10-09T21:06:50.786Z,4.00
2022-10-09T21:09:17.289Z,3.43
2022-10-09T21:11:45.832Z,3.80
2022-10-09T21:14:12.535Z,3.70
2022-10-09T21:16:39.084Z,3.80
2022-10-09T21:19:06.076Z,3.30
2022-10-09T21:21:33.412Z,3.50
2022-10-09T21:24:01.037Z,3.80
2022-10-09T21:26:29.240Z,3.53
2022-10-09T21:28:59.696Z,4.00
2022-10-09T21:31:29.115Z,3.77
2022-10-09T21:33:56.742Z,3.93
2022-10-09T21:36:32.446Z,3.80
2022-10-09T21:38:59.580Z,3.60
2022-10-09T21:41:26.689Z,3.20
2022-10-09T21:43:53.280Z,3.40
2022-10-09T21:46:19.922Z,3.57
2022-10-09T21:48:46.518Z,2.90
2022-10-09T21:51:13.041Z,3.60
2022-10-09T21:53:39.513Z,3.20
2022-10-09T21:56:07.054Z,3.40
2022-10-09T21:58:33.646Z,3.23
2022-10-09T22:01:02.337Z,3.40
2022-10-09T22:03:31.612Z,3.63
2022-10-09T22:05:59.620Z,5.03
2022-10-09T22:08:26.564Z,3.33
2022-10-09T22:10:53.129Z,4.50
2022-10-09T22:13:21.243Z,4.20
2022-10-09T22:15:51.179Z,4.87
2022-10-09T22:18:18.753Z,3.27
2022-10-09T22:20:48.989Z,4.27
2022-10-09T22:23:17.317Z,3.63
2022-10-09T22:25:43.859Z,3.20
2022-10-09T22:28:10.667Z,2.60
2022-10-09T22:30:37.157Z,3.90
2022-10-09T22:33:03.752Z,2.83
2022-10-09T22:35:30.239Z,2.63
2022-10-09T22:37:57.436Z,3.30
2022-10-09T22:40:23.947Z,2.67
2022-10-09T22:42:50.868Z,2.70
2022-10-09T22:45:17.541Z,2.60
2022-10-09T22:47:47.198Z,3.00
2022-10-09T22:50:13.753Z,3.17
2022-10-09T22:52:40.409Z,2.87
2022-10-09T22:55:07.403Z,3.20
2022-10-09T22:57:33.894Z,2.77
2022-10-09T23:00:00.395Z,3.33
2022-10-09T23:02:26.943Z,4.30
2022-10-09T23:04:53.443Z,3.73
2022-10-09T23:07:19.973Z,2.93
2022-10-09T23:09:46.571Z,2.60
2022-10-09T23:12:13.172Z,3.17
2022-10-09T23:14:39.721Z,4.83
2022-10-09T23:17:06.211Z,3.30
2022-10-09T23:19:33.930Z,5.10
2022-10-09T23:22:00.448Z,4.60
2022-10-09T23:24:26.989Z,4.10
2022-10-09T23:26:53.669Z,5.03
2022-10-09T23:29:20.949Z,3.90
2022-10-09T23:31:48.622Z,4.73
2022-10-09T23:34:15.696Z,3.03
2022-10-09T23:36:42.266Z,3.47
2022-10-09T23:39:08.966Z,3.83
2022-10-09T23:41:35.761Z,3.90
2022-10-09T23:44:02.357Z,3.60
2022-10-09T23:46:32.989Z,3.50
2022-10-09T23:48:59.910Z,3.77
2022-10-09T23:51:27.250Z,4.10
2022-10-09T23:53:54.028Z,3.20
2022-10-09T23:56:23.151Z,4.53
2022-10-09T23:58:50.638Z,4.40
